• Join FlightAware (Why Join?)
  • Login
  • US Flag 
11:12PM EDT


 

Airport Tracker/Info


-or-


 

Live Flight TrackerFlight Track Log ✈ DAL1087 ✈ 18-Jul-2013 ✈ KDAB - KATL

Flight Track Log - Related Links

Times and Time Zones

All times are in EDT time to prevent confusion due to time zone crossing. See the DAL1087 flight status page for this flight to view local times or setup timezone preferences in your user account.

Time Position Orientation Groundspeed Altitude Reporting Facility
EDT Latitude Longitude Course Direction KTS MPH feet Rate Location/Type
02:11PM 29.1864 -81.0422 354° North 172 198 1,100  Level Jacksonville Center
02:12PM 29.2189 -80.9867 56° Northeast 244 281 2,700 1,980 Climbing Jacksonville Center
02:14PM 29.4167 -81.3001 319° Northwest  Level FlightAware Approximate
02:14PM 29.2867 -81.0497 321° Northwest 259 298 6,000  Level Jacksonville Center
02:15PM 29.5007 -81.3841 319° Northwest  Level FlightAware Approximate
02:15PM 29.3358 -81.1250 307° West 274 315 8,800  Level Jacksonville Center
02:16PM 29.6008 -81.4279 352° North  Level FlightAware Approximate
02:16PM 29.3889 -81.2075 306° West 300 345 10,900  Level Jacksonville Center
02:17PM 29.7114 -81.4431 354° North  Level FlightAware Approximate
02:17PM 29.4528 -81.2969 309° West 335 386 12,200  Level Jacksonville Center
02:18PM 29.5231 -81.4033 307° West 383 441 14,700 2,340 Climbing Jacksonville Center
02:19PM 29.6219 -81.4686 330° Northwest 401 461 16,900 1,920 Climbing Jacksonville Center
02:20PM 29.7350 -81.5172 340° North 408 470 18,600 1,680 Climbing Jacksonville Center
02:21PM 29.8506 -81.5683 339° North 425 489 20,300 1,620 Climbing Jacksonville Center
02:22PM 29.9700 -81.6217 339° North 444 511 21,900 1,620 Climbing Jacksonville Center
02:23PM 30.0917 -81.6778 338° Northwest 455 524 23,600 1,680 Climbing Jacksonville Center
02:24PM 30.2278 -81.7361 340° North 462 532 25,300 1,620 Climbing Jacksonville Center
02:25PM 30.3517 -81.7950 338° Northwest 480 552 26,900 1,560 Climbing Jacksonville Center
02:26PM 30.4753 -81.8514 339° North 480 552 28,500 1,380 Climbing Jacksonville Center
02:27PM 30.5947 -81.9200 334° Northwest 475 547 29,800 1,200 Climbing Jacksonville Center
02:28PM 30.7103 -81.9986 330° Northwest 475 547 31,000 1,020 Climbing Jacksonville Center
02:29PM 30.8214 -82.0797 328° Northwest 475 547 31,900 960 Climbing Jacksonville Center
02:30PM 30.9325 -82.1586 329° Northwest 470 541 33,000 480 Climbing Jacksonville Center
02:31PM 31.0519 -82.2161 338° Northwest 463 533 32,900  Descending Jacksonville Center
02:32PM 31.1733 -82.2661 341° North 458 527 33,000  Climbing Jacksonville Center
02:33PM 31.2944 -82.3139 341° North 458 527 33,000  Level Jacksonville Center
02:34PM 31.4139 -82.3594 342° North 452 520 33,000  Level Jacksonville Center
02:35PM 31.5247 -82.4053 341° North 452 520 33,000  Level Jacksonville Center
02:37PM 31.8208 -82.5283 341° North 472 543 33,000  Level Atlanta Center
02:38PM 31.9425 -82.5803 340° North 465 535 33,000  Level Atlanta Center
02:39PM 32.0622 -82.6344 339° North 465 535 33,000  Level Atlanta Center
02:40PM 32.1656 -82.7336 321° Northwest 465 535 33,000  Level Atlanta Center
02:41PM 32.2667 -82.8328 320° Northwest 470 541 33,000 -240 Level Atlanta Center
02:42PM 32.3658 -82.9347 319° Northwest 470 541 32,600 -960 Descending Atlanta Center
02:43PM 32.4647 -83.0344 320° Northwest 470 541 31,100 -1,680 Descending Atlanta Center
02:44PM 32.5636 -83.1344 320° Northwest 464 534 29,300 -2,400 Descending Atlanta Center
02:45PM 32.6603 -83.2344 319° Northwest 464 534 26,300 -2,700 Descending Atlanta Center
02:46PM 32.7569 -83.3325 320° Northwest 464 534 23,900 -2,400 Descending Atlanta Center
02:47PM 32.8492 -83.4306 318° Northwest 453 521 21,600 -2,400 Descending Atlanta Center
02:48PM 32.9372 -83.5192 320° Northwest 436 502 19,100 -2,280 Descending Atlanta Center
02:49PM 33.0253 -83.6078 320° Northwest 422 486 17,100 -2,280 Descending Atlanta Center
02:50PM 33.1069 -83.6992 317° Northwest 399 459 14,600 -1,560 Descending Atlanta Center
02:51PM 33.1908 -83.7831 320° Northwest 394 453 14,000 -480 Descending Atlanta Center
02:52PM 33.2536 -83.8700 311° West 389 448 13,700 -1,020 Descending Atlanta Center
02:53PM 33.3203 -83.9692 309° West 384 442 12,000 -900 Descending Atlanta Center
02:54PM 33.3872 -84.0661 310° West 378 435 12,000  Level Atlanta Center
02:55PM 33.4497 -84.1658 307° West 378 435 12,000  Level Atlanta Center
02:56PM 33.5081 -84.2531 309° West 354 407 12,000 -600 Level Atlanta Center
02:57PM 33.5456 -84.3306 300° West 294 338 10,900 -1,380 Descending Atlanta Center
02:58PM 33.5472 -84.4228 271° West 253 291 9,300 -2,160 Descending Atlanta Center
02:59PM 33.5469 -84.5100 270° West 258 297 6,600 -2,700 Descending Atlanta Center